sensor_id;sensor_type;location;lat;lon;timestamp;temperature;humidity
19218;DHT22;9743;52.550;13.264;2024-03-23T03:55:39;6.90;99.90
19218;DHT22;9743;52.550;13.264;2024-03-23T03:58:07;7.00;99.90
19218;DHT22;9743;52.550;13.264;2024-03-23T04:00:33;6.90;99.90
19218;DHT22;9743;52.550;13.264;2024-03-23T04:03:09;6.80;99.90
19218;DHT22;9743;52.550;13.264;2024-03-23T04:06:15;6.90;99.90
19218;DHT22;9743;52.550;13.264;2024-03-23T04:50:01;6.70;99.90
19218;DHT22;9743;52.550;13.264;2024-03-23T04:52:59;6.60;99.90
19218;DHT22;9743;52.550;13.264;2024-03-23T04:59:00;6.60;99.90
19218;DHT22;9743;52.550;13.264;2024-03-23T05:01:37;6.60;99.90
19218;DHT22;9743;52.550;13.264;2024-03-23T05:16:13;6.40;99.90
19218;DHT22;9743;52.550;13.264;2024-03-23T05:18:59;6.40;99.90
19218;DHT22;9743;52.550;13.264;2024-03-23T05:24:35;6.40;99.90
19218;DHT22;9743;52.550;13.264;2024-03-23T05:31:06;6.40;99.90
19218;DHT22;9743;52.550;13.264;2024-03-23T05:33:19;6.40;99.90
19218;DHT22;9743;52.550;13.264;2024-03-23T05:36:21;6.40;99.90
19218;DHT22;9743;52.550;13.264;2024-03-23T05:42:23;6.30;99.90
19218;DHT22;9743;52.550;13.264;2024-03-23T05:44:57;6.30;99.90
19218;DHT22;9743;52.550;13.264;2024-03-23T05:47:26;6.30;99.90
19218;DHT22;9743;52.550;13.264;2024-03-23T05:50:00;6.40;99.90
19218;DHT22;9743;52.550;13.264;2024-03-23T05:52:38;6.50;99.90
19218;DHT22;9743;52.550;13.264;2024-03-23T05:55:05;6.50;99.90
19218;DHT22;9743;52.550;13.264;2024-03-23T05:57:30;6.40;99.90
19218;DHT22;9743;52.550;13.264;2024-03-23T06:00:05;6.30;99.90
19218;DHT22;9743;52.550;13.264;2024-03-23T06:02:35;6.30;99.90
19218;DHT22;9743;52.550;13.264;2024-03-23T06:05:04;6.30;99.90
19218;DHT22;9743;52.550;13.264;2024-03-23T06:07:32;6.30;99.90
19218;DHT22;9743;52.550;13.264;2024-03-23T06:10:00;6.30;99.90
19218;DHT22;9743;52.550;13.264;2024-03-23T06:12:26;6.30;99.90
19218;DHT22;9743;52.550;13.264;2024-03-23T06:14:52;6.30;99.90
19218;DHT22;9743;52.550;13.264;2024-03-23T06:17:18;6.30;99.90
19218;DHT22;9743;52.550;13.264;2024-03-23T06:19:45;6.40;99.90
19218;DHT22;9743;52.550;13.264;2024-03-23T06:22:12;6.40;99.90
19218;DHT22;9743;52.550;13.264;2024-03-23T06:24:39;6.40;99.90
19218;DHT22;9743;52.550;13.264;2024-03-23T06:27:04;6.40;99.90
19218;DHT22;9743;52.550;13.264;2024-03-23T06:29:31;6.50;99.90
19218;DHT22;9743;52.550;13.264;2024-03-23T06:31:57;6.50;99.90
19218;DHT22;9743;52.550;13.264;2024-03-23T06:34:24;6.50;99.90
19218;DHT22;9743;52.550;13.264;2024-03-23T06:36:50;6.40;99.90
19218;DHT22;9743;52.550;13.264;2024-03-23T06:39:18;6.40;99.90
19218;DHT22;9743;52.550;13.264;2024-03-23T06:41:45;6.40;99.90
19218;DHT22;9743;52.550;13.264;2024-03-23T06:44:17;6.50;99.90
19218;DHT22;9743;52.550;13.264;2024-03-23T06:46:44;6.60;99.90
19218;DHT22;9743;52.550;13.264;2024-03-23T06:49:10;6.40;99.90
19218;DHT22;9743;52.550;13.264;2024-03-23T06:51:37;6.40;99.90
19218;DHT22;9743;52.550;13.264;2024-03-23T06:54:03;6.50;99.90
19218;DHT22;9743;52.550;13.264;2024-03-23T06:58:57;6.60;99.90
19218;DHT22;9743;52.550;13.264;2024-03-23T07:01:24;6.60;99.90
19218;DHT22;9743;52.550;13.264;2024-03-23T07:03:50;6.60;99.90
19218;DHT22;9743;52.550;13.264;2024-03-23T07:06:16;6.60;99.90
19218;DHT22;9743;52.550;13.264;2024-03-23T07:08:42;6.50;99.90
19218;DHT22;9743;52.550;13.264;2024-03-23T07:11:09;6.60;99.90
19218;DHT22;9743;52.550;13.264;2024-03-23T07:13:34;6.70;99.90
19218;DHT22;9743;52.550;13.264;2024-03-23T07:16:02;6.70;99.90
19218;DHT22;9743;52.550;13.264;2024-03-23T07:18:28;6.80;99.90
19218;DHT22;9743;52.550;13.264;2024-03-23T07:20:55;6.70;99.90
19218;DHT22;9743;52.550;13.264;2024-03-23T07:23:21;6.70;99.90
19218;DHT22;9743;52.550;13.264;2024-03-23T07:25:58;6.60;99.90
19218;DHT22;9743;52.550;13.264;2024-03-23T07:28:24;6.70;99.90
19218;DHT22;9743;52.550;13.264;2024-03-23T07:31:00;6.70;99.90
19218;DHT22;9743;52.550;13.264;2024-03-23T07:33:28;6.70;99.90
19218;DHT22;9743;52.550;13.264;2024-03-23T07:35:54;6.80;99.90
19218;DHT22;9743;52.550;13.264;2024-03-23T07:38:20;6.90;99.90
19218;DHT22;9743;52.550;13.264;2024-03-23T07:40:47;6.70;99.90
19218;DHT22;9743;52.550;13.264;2024-03-23T07:43:15;6.70;99.90
19218;DHT22;9743;52.550;13.264;2024-03-23T07:45:41;6.80;99.90
19218;DHT22;9743;52.550;13.264;2024-03-23T07:48:08;6.80;99.90
19218;DHT22;9743;52.550;13.264;2024-03-23T07:50:37;6.80;99.90
19218;DHT22;9743;52.550;13.264;2024-03-23T07:53:04;6.80;99.90
19218;DHT22;9743;52.550;13.264;2024-03-23T07:55:30;6.70;99.90
19218;DHT22;9743;52.550;13.264;2024-03-23T07:57:56;6.70;99.90
19218;DHT22;9743;52.550;13.264;2024-03-23T08:00:22;6.70;99.90
19218;DHT22;9743;52.550;13.264;2024-03-23T08:02:50;6.50;99.90
19218;DHT22;9743;52.550;13.264;2024-03-23T08:05:16;6.60;99.90
19218;DHT22;9743;52.550;13.264;2024-03-23T08:07:44;6.40;99.90
19218;DHT22;9743;52.550;13.264;2024-03-23T08:10:10;6.50;99.90
19218;DHT22;9743;52.550;13.264;2024-03-23T08:12:38;6.40;99.90
19218;DHT22;9743;52.550;13.264;2024-03-23T08:15:04;6.40;99.90
19218;DHT22;9743;52.550;13.264;2024-03-23T08:17:30;6.10;99.90
19218;DHT22;9743;52.550;13.264;2024-03-23T08:19:59;6.10;99.90
19218;DHT22;9743;52.550;13.264;2024-03-23T08:22:26;6.00;99.90
19218;DHT22;9743;52.550;13.264;2024-03-23T08:24:53;5.90;99.90
19218;DHT22;9743;52.550;13.264;2024-03-23T08:27:23;5.90;99.90
19218;DHT22;9743;52.550;13.264;2024-03-23T08:29:48;5.90;99.90
19218;DHT22;9743;52.550;13.264;2024-03-23T08:32:15;5.90;99.90
19218;DHT22;9743;52.550;13.264;2024-03-23T08:34:42;5.90;99.90
19218;DHT22;9743;52.550;13.264;2024-03-23T08:37:09;5.70;99.90
19218;DHT22;9743;52.550;13.264;2024-03-23T08:39:34;5.70;99.90
19218;DHT22;9743;52.550;13.264;2024-03-23T08:42:02;5.90;99.90
19218;DHT22;9743;52.550;13.264;2024-03-23T08:44:28;5.70;99.90
19218;DHT22;9743;52.550;13.264;2024-03-23T08:46:55;5.70;99.90
19218;DHT22;9743;52.550;13.264;2024-03-23T08:49:21;5.60;99.90
19218;DHT22;9743;52.550;13.264;2024-03-23T08:51:48;5.50;99.90
19218;DHT22;9743;52.550;13.264;2024-03-23T08:54:13;5.50;99.90
19218;DHT22;9743;52.550;13.264;2024-03-23T08:56:40;5.60;99.90
19218;DHT22;9743;52.550;13.264;2024-03-23T08:59:07;5.50;99.90
19218;DHT22;9743;52.550;13.264;2024-03-23T09:01:34;5.60;99.90
19218;DHT22;9743;52.550;13.264;2024-03-23T09:03:59;5.30;99.90
19218;DHT22;9743;52.550;13.264;2024-03-23T09:06:26;5.40;99.90
19218;DHT22;9743;52.550;13.264;2024-03-23T09:08:52;5.30;99.90
19218;DHT22;9743;52.550;13.264;2024-03-23T09:11:18;5.40;99.90
19218;DHT22;9743;52.550;13.264;2024-03-23T09:13:44;5.40;99.90
19218;DHT22;9743;52.550;13.264;2024-03-23T09:16:12;5.40;99.90
19218;DHT22;9743;52.550;13.264;2024-03-23T09:18:38;5.40;99.90
19218;DHT22;9743;52.550;13.264;2024-03-23T09:21:10;5.40;99.90
19218;DHT22;9743;52.550;13.264;2024-03-23T09:23:36;5.40;99.90
19218;DHT22;9743;52.550;13.264;2024-03-23T09:26:03;5.50;99.90
19218;DHT22;9743;52.550;13.264;2024-03-23T09:28:28;5.50;99.90
19218;DHT22;9743;52.550;13.264;2024-03-23T09:30:55;5.50;99.90
19218;DHT22;9743;52.550;13.264;2024-03-23T09:33:28;5.50;99.90
19218;DHT22;9743;52.550;13.264;2024-03-23T09:35:55;5.50;99.90
19218;DHT22;9743;52.550;13.264;2024-03-23T09:38:21;5.50;99.90
19218;DHT22;9743;52.550;13.264;2024-03-23T09:40:48;5.60;99.90
19218;DHT22;9743;52.550;13.264;2024-03-23T09:43:15;5.60;99.90
19218;DHT22;9743;52.550;13.264;2024-03-23T09:45:42;5.40;99.90
19218;DHT22;9743;52.550;13.264;2024-03-23T09:48:09;5.50;99.90
19218;DHT22;9743;52.550;13.264;2024-03-23T09:50:37;5.50;99.90
19218;DHT22;9743;52.550;13.264;2024-03-23T09:53:04;5.50;99.90
19218;DHT22;9743;52.550;13.264;2024-03-23T09:55:30;5.30;99.90
19218;DHT22;9743;52.550;13.264;2024-03-23T09:57:56;5.30;99.90
19218;DHT22;9743;52.550;13.264;2024-03-23T10:00:23;5.30;99.90
19218;DHT22;9743;52.550;13.264;2024-03-23T10:02:48;5.30;99.90
19218;DHT22;9743;52.550;13.264;2024-03-23T10:05:21;5.30;99.90
19218;DHT22;9743;52.550;13.264;2024-03-23T10:07:49;5.30;99.90
19218;DHT22;9743;52.550;13.264;2024-03-23T10:10:16;5.30;99.90
19218;DHT22;9743;52.550;13.264;2024-03-23T10:12:43;5.30;99.90
19218;DHT22;9743;52.550;13.264;2024-03-23T10:15:15;5.30;99.90
19218;DHT22;9743;52.550;13.264;2024-03-23T10:17:41;5.30;99.90
19218;DHT22;9743;52.550;13.264;2024-03-23T10:20:09;5.30;99.90
19218;DHT22;9743;52.550;13.264;2024-03-23T10:22:36;5.30;99.90
19218;DHT22;9743;52.550;13.264;2024-03-23T10:25:07;5.20;99.90
19218;DHT22;9743;52.550;13.264;2024-03-23T10:27:33;5.40;99.90
19218;DHT22;9743;52.550;13.264;2024-03-23T10:30:07;5.40;99.90
19218;DHT22;9743;52.550;13.264;2024-03-23T10:32:33;5.50;99.90
19218;DHT22;9743;52.550;13.264;2024-03-23T10:35:13;5.50;99.90
19218;DHT22;9743;52.550;13.264;2024-03-23T10:37:39;5.50;99.90
19218;DHT22;9743;52.550;13.264;2024-03-23T10:40:09;5.50;99.90
19218;DHT22;9743;52.550;13.264;2024-03-23T10:42:35;5.50;99.90
19218;DHT22;9743;52.550;13.264;2024-03-23T10:45:03;5.50;99.90
19218;DHT22;9743;52.550;13.264;2024-03-23T10:47:35;5.50;99.90
19218;DHT22;9743;52.550;13.264;2024-03-23T10:50:05;5.70;99.90
19218;DHT22;9743;52.550;13.264;2024-03-23T10:52:48;5.70;99.90
19218;DHT22;9743;52.550;13.264;2024-03-23T10:55:54;5.80;99.90
19218;DHT22;9743;52.550;13.264;2024-03-23T10:58:23;5.70;99.90
19218;DHT22;9743;52.550;13.264;2024-03-23T11:01:10;5.70;99.90
19218;DHT22;9743;52.550;13.264;2024-03-23T11:04:33;5.70;99.90
19218;DHT22;9743;52.550;13.264;2024-03-23T11:06:59;5.70;99.90
19218;DHT22;9743;52.550;13.264;2024-03-23T11:09:43;5.70;99.90
19218;DHT22;9743;52.550;13.264;2024-03-23T11:12:26;5.90;99.90
19218;DHT22;9743;52.550;13.264;2024-03-23T11:14:58;6.00;99.90
19218;DHT22;9743;52.550;13.264;2024-03-23T11:17:26;6.00;99.90
19218;DHT22;9743;52.550;13.264;2024-03-23T11:19:53;6.00;99.90
19218;DHT22;9743;52.550;13.264;2024-03-23T11:22:43;6.10;99.90
19218;DHT22;9743;52.550;13.264;2024-03-23T11:25:15;6.00;99.90
19218;DHT22;9743;52.550;13.264;2024-03-23T11:27:42;6.10;99.90
19218;DHT22;9743;52.550;13.264;2024-03-23T11:30:11;6.30;99.90
19218;DHT22;9743;52.550;13.264;2024-03-23T11:32:36;6.30;99.90
19218;DHT22;9743;52.550;13.264;2024-03-23T11:35:03;6.20;99.90
19218;DHT22;9743;52.550;13.264;2024-03-23T11:37:29;6.30;99.90
19218;DHT22;9743;52.550;13.264;2024-03-23T11:39:56;6.40;99.90
19218;DHT22;9743;52.550;13.264;2024-03-23T11:42:21;6.50;99.90
19218;DHT22;9743;52.550;13.264;2024-03-23T11:44:49;6.60;99.90
19218;DHT22;9743;52.550;13.264;2024-03-23T11:47:15;6.80;99.90
19218;DHT22;9743;52.550;13.264;2024-03-23T11:49:42;6.80;99.90
19218;DHT22;9743;52.550;13.264;2024-03-23T11:52:07;7.00;99.90
19218;DHT22;9743;52.550;13.264;2024-03-23T11:54:34;6.70;99.90
19218;DHT22;9743;52.550;13.264;2024-03-23T11:57:00;6.60;99.90
19218;DHT22;9743;52.550;13.264;2024-03-23T11:59:35;6.60;99.90
19218;DHT22;9743;52.550;13.264;2024-03-23T12:02:11;6.50;99.90
19218;DHT22;9743;52.550;13.264;2024-03-23T12:04:45;6.60;99.90
19218;DHT22;9743;52.550;13.264;2024-03-23T12:07:14;6.70;99.90
19218;DHT22;9743;52.550;13.264;2024-03-23T12:09:41;6.60;99.90
19218;DHT22;9743;52.550;13.264;2024-03-23T12:12:21;6.50;99.90
19218;DHT22;9743;52.550;13.264;2024-03-23T12:30:47;6.80;99.90
19218;DHT22;9743;52.550;13.264;2024-03-23T14:35:36;7.90;99.90
19218;DHT22;9743;52.550;13.264;2024-03-23T14:41:06;7.90;99.90
19218;DHT22;9743;52.550;13.264;2024-03-23T14:43:33;7.00;99.90
19218;DHT22;9743;52.550;13.264;2024-03-23T14:46:08;6.50;99.90
19218;DHT22;9743;52.550;13.264;2024-03-23T14:48:35;5.90;99.90
19218;DHT22;9743;52.550;13.264;2024-03-23T14:51:02;5.60;99.90
19218;DHT22;9743;52.550;13.264;2024-03-23T14:53:31;5.60;99.90
19218;DHT22;9743;52.550;13.264;2024-03-23T14:55:57;5.70;99.90
19218;DHT22;9743;52.550;13.264;2024-03-23T14:58:25;5.70;99.90
19218;DHT22;9743;52.550;13.264;2024-03-23T15:00:51;6.10;99.90
19218;DHT22;9743;52.550;13.264;2024-03-23T15:03:23;8.10;99.90
19218;DHT22;9743;52.550;13.264;2024-03-23T15:05:52;8.10;99.90
19218;DHT22;9743;52.550;13.264;2024-03-23T15:08:20;7.90;99.90
19218;DHT22;9743;52.550;13.264;2024-03-23T15:10:45;8.80;99.90
19218;DHT22;9743;52.550;13.264;2024-03-23T15:13:12;8.50;99.90
19218;DHT22;9743;52.550;13.264;2024-03-23T15:15:38;8.50;99.90
19218;DHT22;9743;52.550;13.264;2024-03-23T15:18:06;8.10;99.90
19218;DHT22;9743;52.550;13.264;2024-03-23T15:23:36;7.70;99.90
19218;DHT22;9743;52.550;13.264;2024-03-23T15:26:03;7.60;99.90
19218;DHT22;9743;52.550;13.264;2024-03-23T15:28:29;7.60;99.90
19218;DHT22;9743;52.550;13.264;2024-03-23T15:31:07;7.60;99.90
19218;DHT22;9743;52.550;13.264;2024-03-23T15:33:32;7.80;99.90
19218;DHT22;9743;52.550;13.264;2024-03-23T15:35:59;7.90;99.90
19218;DHT22;9743;52.550;13.264;2024-03-23T15:38:25;7.90;99.90
19218;DHT22;9743;52.550;13.264;2024-03-23T15:40:53;7.90;99.90
19218;DHT22;9743;52.550;13.264;2024-03-23T15:43:18;7.90;99.90
19218;DHT22;9743;52.550;13.264;2024-03-23T15:45:53;7.90;99.90
19218;DHT22;9743;52.550;13.264;2024-03-23T15:48:18;7.90;99.90
19218;DHT22;9743;52.550;13.264;2024-03-23T15:50:54;8.00;99.90
19218;DHT22;9743;52.550;13.264;2024-03-23T15:53:26;8.00;99.90
19218;DHT22;9743;52.550;13.264;2024-03-23T15:56:41;7.90;99.90
19218;DHT22;9743;52.550;13.264;2024-03-23T15:59:09;7.90;99.90
19218;DHT22;9743;52.550;13.264;2024-03-23T16:01:36;7.90;99.90
19218;DHT22;9743;52.550;13.264;2024-03-23T16:04:03;8.10;99.90
19218;DHT22;9743;52.550;13.264;2024-03-23T16:06:31;7.90;99.90
19218;DHT22;9743;52.550;13.264;2024-03-23T16:08:57;7.90;99.90
19218;DHT22;9743;52.550;13.264;2024-03-23T16:11:24;7.90;99.90
19218;DHT22;9743;52.550;13.264;2024-03-23T16:13:51;7.80;99.90
19218;DHT22;9743;52.550;13.264;2024-03-23T16:16:18;7.80;99.90
19218;DHT22;9743;52.550;13.264;2024-03-23T16:18:47;7.70;99.90
19218;DHT22;9743;52.550;13.264;2024-03-23T16:21:14;7.60;99.90
19218;DHT22;9743;52.550;13.264;2024-03-23T16:23:40;7.50;99.90
19218;DHT22;9743;52.550;13.264;2024-03-23T16:26:07;7.50;99.90
19218;DHT22;9743;52.550;13.264;2024-03-23T16:28:34;7.50;99.90
19218;DHT22;9743;52.550;13.264;2024-03-23T16:31:05;7.50;99.90
19218;DHT22;9743;52.550;13.264;2024-03-23T16:33:33;7.50;99.90
19218;DHT22;9743;52.550;13.264;2024-03-23T16:36:04;7.60;99.90
19218;DHT22;9743;52.550;13.264;2024-03-23T16:38:31;7.50;99.90
19218;DHT22;9743;52.550;13.264;2024-03-23T16:41:00;7.50;99.90
19218;DHT22;9743;52.550;13.264;2024-03-23T16:43:32;7.50;99.90
19218;DHT22;9743;52.550;13.264;2024-03-23T16:46:04;7.50;99.90
19218;DHT22;9743;52.550;13.264;2024-03-23T16:48:30;7.50;99.90
19218;DHT22;9743;52.550;13.264;2024-03-23T16:50:57;7.40;99.90
19218;DHT22;9743;52.550;13.264;2024-03-23T16:53:23;7.50;99.90
19218;DHT22;9743;52.550;13.264;2024-03-23T16:55:54;7.40;99.90
19218;DHT22;9743;52.550;13.264;2024-03-23T16:58:19;7.40;99.90
19218;DHT22;9743;52.550;13.264;2024-03-23T17:00:46;7.30;99.90
19218;DHT22;9743;52.550;13.264;2024-03-23T17:03:15;7.30;99.90
19218;DHT22;9743;52.550;13.264;2024-03-23T17:05:41;7.30;99.90
19218;DHT22;9743;52.550;13.264;2024-03-23T17:08:08;7.20;99.90
19218;DHT22;9743;52.550;13.264;2024-03-23T17:10:34;7.10;99.90
19218;DHT22;9743;52.550;13.264;2024-03-23T17:13:00;7.10;99.90
19218;DHT22;9743;52.550;13.264;2024-03-23T17:15:27;7.00;99.90
19218;DHT22;9743;52.550;13.264;2024-03-23T17:17:53;7.00;99.90
19218;DHT22;9743;52.550;13.264;2024-03-23T17:20:21;6.90;99.90
19218;DHT22;9743;52.550;13.264;2024-03-23T17:22:53;7.00;99.90
19218;DHT22;9743;52.550;13.264;2024-03-23T17:25:20;6.80;99.90
19218;DHT22;9743;52.550;13.264;2024-03-23T17:27:46;6.80;99.90
19218;DHT22;9743;52.550;13.264;2024-03-23T17:30:12;6.70;99.90
19218;DHT22;9743;52.550;13.264;2024-03-23T17:32:41;6.70;99.90
19218;DHT22;9743;52.550;13.264;2024-03-23T17:35:08;6.70;99.90
19218;DHT22;9743;52.550;13.264;2024-03-23T17:37:35;6.60;99.90
19218;DHT22;9743;52.550;13.264;2024-03-23T17:40:01;6.50;99.90
19218;DHT22;9743;52.550;13.264;2024-03-23T17:42:28;6.50;99.90
19218;DHT22;9743;52.550;13.264;2024-03-23T17:44:59;6.50;99.90
19218;DHT22;9743;52.550;13.264;2024-03-23T17:47:25;6.40;99.90
19218;DHT22;9743;52.550;13.264;2024-03-23T17:49:52;6.50;99.90
19218;DHT22;9743;52.550;13.264;2024-03-23T17:52:18;6.50;99.90
19218;DHT22;9743;52.550;13.264;2024-03-23T17:54:49;6.50;99.90
19218;DHT22;9743;52.550;13.264;2024-03-23T17:57:35;6.50;99.90
19218;DHT22;9743;52.550;13.264;2024-03-23T18:00:51;6.40;99.90
19218;DHT22;9743;52.550;13.264;2024-03-23T18:03:05;6.50;99.90
19218;DHT22;9743;52.550;13.264;2024-03-23T18:05:34;6.50;99.90
19218;DHT22;9743;52.550;13.264;2024-03-23T18:08:12;6.60;99.90
19218;DHT22;9743;52.550;13.264;2024-03-23T18:26:04;5.60;99.90
19218;DHT22;9743;52.550;13.264;2024-03-23T18:28:56;5.50;99.90
